Flight Track Log - Related Links

Times and Time Zones

All times are in EDT time to prevent confusion due to time zone crossing. See the N1906H flight status page for this flight to view local times or setup timezone preferences in your user account.

Time Position Orientation Groundspeed Altitude Reporting Facility
EDT Latitude Longitude Course Direction KTS MPH feet Rate Location/Type
Wed 06:49:23 PM 42.0692 -93.7411 310° West 138 159 3,000  Level Minneapolis Center
Wed 06:50:30 PM 42.0967 -93.7853 310° West 138 159 2,900 -55 Descending Minneapolis Center
Wed 06:51:13 PM 42.1078 -93.8269 290° West 137 158 2,900  Level Minneapolis Center
Wed 06:51:31 PM 42.1200 -93.8239 11° North 137 158 2,900  Level Minneapolis Center
Wed 06:52:15 PM 42.1328 -93.8642 293° West 135 155 2,900  Level Minneapolis Center
Wed 06:52:31 PM 42.1475 -93.8625 North 133 153 2,900  Level Minneapolis Center
Wed 06:53:17 PM 42.1586 -93.9011 291° West 136 157 2,900  Level Minneapolis Center
Wed 06:53:38 PM 42.1753 -93.9042 352° North 136 157 2,900 97 Level Minneapolis Center
Wed 06:54:19 PM 42.1856 -93.9414 290° West 136 157 3,000 50 Climbing Minneapolis Center
Wed 06:55:39 PM 42.2258 -93.9703 332° Northwest 130 150 3,000 -39 Level Minneapolis Center
Wed 06:57:00 PM 42.1817 -93.9041 132° Southeast  Level Estimated
Wed 07:04:00 PM 41.9938 -93.6245 132° Southeast  Level Estimated
Wed 07:05:00 PM 41.9921 -93.6218 132° Southeast  Level Estimated
Wed 07:06:00 PM 41.9921 -93.6218 209° Southwest  Level Estimated
Wed 07:06:59 PM 42.0283 -93.8175 209° Southwest 116 133 2,500  Level Minneapolis Center
Wed 07:07:00 PM 41.9921 -93.6218 209° Southwest  Level Estimated
Wed 07:07:09 PM 42.0175 -93.8247 206° Southwest 102 117 2,600  Level Minneapolis Center
Wed 07:08:00 PM 41.9921 -93.6218 209° Southwest  Level Estimated
Wed 07:08:00 PM 42.0031 -93.7983 126° Southeast 105 121 3,200  Level Minneapolis Center
Wed 07:08:11 PM 41.9914 -93.8061 206° Southwest 105 121 3,400 787 Climbing Minneapolis Center
Wed 07:09:00 PM 41.9921 -93.6218 209° Southwest  Level Estimated
Wed 07:09:01 PM 41.9758 -93.7767 125° Southeast 112 129 4,000  Level Minneapolis Center
Wed 07:09:13 PM 41.9614 -93.7819 195° South 115 132 4,000 111 Level Minneapolis Center
Wed 07:09:55 PM 41.9442 -93.7522 128° Southeast 145 167 4,100  Climbing Minneapolis Center
Wed 07:10:00 PM 41.9921 -93.6218 209° Southwest  Level Estimated
Wed 07:10:15 PM 41.9258 -93.7525 181° South 145 167 4,000  Level Minneapolis Center
Wed 07:10:56 PM 41.9042 -93.7225 134° Southeast 168 193 4,000 -97 Level Minneapolis Center
Wed 07:11:00 PM 41.9921 -93.6218 209° Southwest  Level Estimated
Wed 07:11:17 PM 41.8831 -93.7217 178° South 160 184 3,900  Level Minneapolis Center
Wed 07:11:56 PM 41.8683 -93.6869 120° Southeast 165 190 3,800  Descending Minneapolis Center
Wed 07:12:00 PM 41.9921 -93.6218 209° Southwest  Level Estimated
Wed 07:12:19 PM 41.8519 -93.6792 161° South 161 185 3,900  Level Minneapolis Center
Wed 07:12:51 PM 41.8447 -93.6428 105° East 159 183 3,900  Level Minneapolis Center
Wed 07:13:22 PM 41.8244 -93.6333 161° South 159 183 3,900  Level Minneapolis Center
Wed 07:13:52 PM 41.8092 -93.6325 178° South 152 175 3,900  Level Minneapolis Center
Wed 07:14:24 PM 41.8067 -93.6664 264° West 139 160 3,900 98 Level Minneapolis Center
Wed 07:14:53 PM 41.8283 -93.6683 356° North 127 146 4,000 97 Climbing Minneapolis Center
Wed 07:15:26 PM 41.8386 -93.6883 305° West 129 148 4,000  Level Minneapolis Center
Wed 07:15:53 PM 41.8600 -93.6872 North 131 151 4,000 -97 Level Minneapolis Center
Wed 07:16:28 PM 41.8733 -93.7083 310° West 127 146 3,900 -393 Descending Minneapolis Center
Wed 07:16:54 PM 41.8936 -93.7058 North 117 135 3,600 -581 Descending Minneapolis Center
Wed 07:17:30 PM 41.9019 -93.7289 296° West 118 136 3,300 -436 Descending Minneapolis Center
Wed 07:17:49 PM 41.9167 -93.7278 North 119 137 3,200 -290 Descending Minneapolis Center
Wed 07:18:32 PM 41.9319 -93.7533 309° West 118 136 3,000 -200 Descending Minneapolis Center
Wed 07:18:49 PM 41.9483 -93.7494 10° North 116 133 3,000 -97 Level Minneapolis Center
Wed 07:19:34 PM 41.9581 -93.7764 296° West 112 129 2,900 -98 Descending Minneapolis Center
Wed 07:19:50 PM 41.9714 -93.7711 16° North 105 121 2,900 -387 Level Minneapolis Center
Wed 07:20:36 PM 41.9819 -93.7956 300° West 95 109 2,500 -492 Descending Minneapolis Center
Wed 07:20:51 PM 41.9947 -93.7903 17° North 96 110 2,400 -387 Descending Minneapolis Center
Wed 07:21:38 PM 42.0044 -93.8139 299° West 100 115 2,100 165 Descending Minneapolis Center
Wed 07:24:29 PM 42.0664 -93.8669 328° Northwest 84 97 3,000 345 Climbing Minneapolis Center
Wed 07:24:32 PM 42.0575 -93.8819 231° Southwest 96 110 3,100 1,000 Climbing Minneapolis Center
Wed 07:24:53 PM 42.0581 -93.8783 78° East 94 108 3,400 774 Climbing Minneapolis Center
Wed 07:25:34 PM 42.0361 -93.9083 225° Southwest 104 120 3,900 590 Climbing Minneapolis Center
Wed 07:25:54 PM 42.0314 -93.9125 213° Southwest 137 158 4,000 97 Climbing Minneapolis Center
Wed 07:26:36 PM 42.0072 -93.9444 224° Southwest 125 144 4,000 98 Level Minneapolis Center
Wed 07:26:55 PM 42.0089 -93.9464 319° Northwest 142 163 4,100  Climbing Minneapolis Center
Wed 07:27:38 PM 42.0025 -93.9942 260° West 141 162 4,000 -91 Descending Minneapolis Center
Wed 07:28:01 PM 42.0114 -93.9994 336° Northwest 132 152 4,000  Level Minneapolis Center
Wed 07:28:40 PM 42.0031 -94.0456 256° West 131 151 4,000 -98 Level Minneapolis Center
Wed 07:29:02 PM 42.0100 -94.0525 323° Northwest 142 163 3,900 -95 Descending Minneapolis Center
Wed 07:29:43 PM 42.0056 -94.0961 262° West 135 155 3,900  Level Minneapolis Center
Wed 07:30:03 PM 42.0147 -94.1056 323° Northwest 132 152 3,900 97 Level Minneapolis Center
Wed 07:30:45 PM 42.0094 -94.1489 261° West 132 152 4,000  Climbing Minneapolis Center
Wed 07:31:03 PM 42.0192 -94.1531 342° North 132 152 3,900  Descending Minneapolis Center
Wed 07:31:47 PM 42.0114 -94.1978 257° West 131 151 4,000 109 Climbing Minneapolis Center
Wed 07:31:58 PM 42.0217 -94.1978 360° North 129 148 4,000  Level Minneapolis Center
Wed 07:32:49 PM 42.0028 -94.2442 241° Southwest 127 146 4,000 -197 Level Minneapolis Center
Wed 07:32:59 PM 42.0053 -94.2400 51° Northeast 134 154 3,800 -514 Descending Minneapolis Center
Wed 07:33:59 PM 41.9744 -94.2822 226° Southwest 170 196 3,400 -263 Descending Minneapolis Center
Wed 07:34:53 PM 41.9386 -94.2817 179° South 153 176 3,300 -310 Descending Minneapolis Center
Wed 07:35:55 PM 41.9017 -94.2472 145° Southeast 148 170 2,800 -339 Descending Minneapolis Center
Wed 07:36:57 PM 41.8753 -94.2156 138° Southeast 141 162 2,600 -127 Descending Minneapolis Center
Wed 07:39:51 PM 41.8056 -94.1383 140° Southeast 96 110 2,300 -32 Descending Minneapolis Center
Wed 07:40:03 PM 41.8064 -94.1231 86° East 116 133 2,500 658 Climbing Minneapolis Center
Wed 07:41:04 PM 41.7811 -94.0983 144° Southeast 113 130 3,100 541 Climbing Minneapolis Center
Wed 07:42:05 PM 41.7558 -94.0708 141° Southeast 122 140 3,600 319 Climbing Minneapolis Center
Wed 07:42:57 PM 41.7228 -94.0525 158° South 133 153 3,700 100 Climbing Minneapolis Center
Wed 07:43:05 PM 41.7264 -94.0381 71° East 140 161 3,700 -194 Level Minneapolis Center
Wed 07:43:59 PM 41.6917 -94.0089 148° Southeast 150 173 3,500 -197 Descending Minneapolis Center
Wed 07:44:06 PM 41.6989 -93.9939 57° Northeast 161 185 3,500 -97 Level Minneapolis Center
Wed 07:45:01 PM 41.6825 -93.9531 118° Southeast 153 176 3,400 -98 Descending Minneapolis Center
Wed 07:45:07 PM 41.6878 -93.9386 64° Northeast 155 178 3,400 190 Level Minneapolis Center
Wed 07:46:04 PM 41.6503 -93.9336 174° South 142 163 3,600 200 Climbing Minneapolis Center
Wed 07:46:07 PM 41.6564 -93.9281 34° Northeast 138 159 3,600  Level Minneapolis Center
Wed 07:47:06 PM 41.6561 -93.9722 270° West 132 152 3,600  Level Minneapolis Center
Wed 07:47:08 PM 41.6653 -93.9667 24° Northeast 131 151 3,600  Level Minneapolis Center
Wed 07:48:08 PM 41.6858 -94.0028 307° West 128 147 3,600  Level Minneapolis Center
Wed 07:48:09 PM 41.6925 -93.9942 44° Northeast 126 145 3,600 -98 Level Minneapolis Center
Wed 07:49:09 PM 41.7200 -94.0214 324° Northwest 119 137 3,500 -98 Descending Minneapolis Center
Wed 07:49:10 PM 41.7119 -94.0322 225° Southwest 124 143 3,500 -98 Level Minneapolis Center
Wed 07:50:10 PM 41.7431 -94.0489 338° Northwest 112 129 3,400 -97 Descending Minneapolis Center
Wed 07:50:12 PM 41.7378 -94.0614 241° Southwest 115 132 3,400 -492 Level Minneapolis Center
Wed 07:51:11 PM 41.7642 -94.0736 341° North 99 114 2,900 -484 Descending Minneapolis Center
Wed 07:51:14 PM 41.7572 -94.0844 229° Southwest 95 109 2,900 -600 Level Minneapolis Center
Wed 07:52:11 PM 41.7853 -94.0983 340° North 100 115 2,300 -581 Descending Minneapolis Center
Wed 07:52:16 PM 41.7800 -94.1078 233° Southwest 100 115 2,300 -590 Level Minneapolis Center
Wed 07:53:12 PM 41.8083 -94.1231 338° Northwest 105 121 1,700 -484 Descending Minneapolis Center
Wed 07:53:18 PM 41.8008 -94.1331 225° Southwest 108 124 1,800  Climbing Minneapolis Center
Wed 07:54:13 PM 41.8169 -94.1311 North 105 121 1,700 484 Descending Minneapolis Center
Wed 07:55:22 PM 41.8533 -94.1878 311° West 105 121 2,800 843 Climbing Minneapolis Center
Wed 07:56:14 PM 41.8819 -94.1886 359° North 109 125 3,400 968 Climbing Minneapolis Center
Wed 07:56:24 PM 41.8781 -94.1933 222° Southwest 126 145 3,800 575 Climbing Minneapolis Center
Wed 07:57:27 PM 41.8672 -94.1414 106° East 139 160 4,100 162 Climbing Minneapolis Center
Wed 07:58:15 PM 41.8622 -94.0886 97° East 163 188 4,100 194 Level Minneapolis Center
Wed 07:58:29 PM 41.8519 -94.0861 170° South 155 178 4,300  Climbing Minneapolis Center
Wed 07:59:16 PM 41.8472 -94.0331 97° East 157 181 4,100 -97 Descending Minneapolis Center
Wed 07:59:31 PM 41.8353 -94.0272 160° South 157 181 4,200  Climbing Minneapolis Center
Wed 08:00:17 PM 41.8278 -93.9778 101° East 153 176 4,100  Descending Minneapolis Center
Wed 08:00:33 PM 41.8172 -93.9753 170° South 155 178 4,200  Climbing Minneapolis Center
Wed 08:01:23 PM 41.8106 -93.9194 99° East 154 177 4,100  Descending Minneapolis Center
Wed 08:01:35 PM 41.8003 -93.9228 194° South 155 178 4,200  Climbing Minneapolis Center
Wed 08:02:25 PM 41.7933 -93.8669 99° East 157 181 4,100  Descending Minneapolis Center
Wed 08:02:37 PM 41.7808 -93.8653 174° South 156 180 4,200  Climbing Minneapolis Center
Wed 08:03:19 PM 41.7761 -93.8200 98° East 156 180 4,100 -97 Descending Minneapolis Center
Wed 08:03:39 PM 41.7703 -93.8103 129° Southeast 157 181 4,100 -200 Level Minneapolis Center
Wed 08:04:19 PM 41.7858 -93.7697 63° Northeast 130 150 3,900 -97 Descending Minneapolis Center
Wed 08:04:41 PM 41.7833 -93.7614 112° Southeast 133 153 4,000 98 Climbing Minneapolis Center
Wed 08:05:20 PM 41.7978 -93.7247 62° Northeast 117 135 4,000  Level Minneapolis Center
Wed 08:05:43 PM 41.7969 -93.7219 112° Southeast 120 138 4,000  Level Minneapolis Center
Wed 08:06:21 PM 41.8142 -93.6911 53° Northeast 109 125 4,000 -194 Level Minneapolis Center
Wed 08:06:45 PM 41.8197 -93.6919 354° North 110 127 3,800 -700 Descending Minneapolis Center
Wed 08:07:21 PM 41.8431 -93.6708 34° Northeast 114 131 3,300 -677 Descending Minneapolis Center
Wed 08:07:47 PM 41.8486 -93.6781 316° Northwest 112 129 3,100 -689 Descending Minneapolis Center
Wed 08:08:22 PM 41.8742 -93.6617 26° Northeast 114 131 2,600 -286 Descending Minneapolis Center
Wed 08:08:50 PM 41.8806 -93.6656 336° Northwest 111 128 2,800 197 Climbing Minneapolis Center
Wed 08:09:23 PM 41.9011 -93.6500 29° Northeast 106 122 2,800  Level Minneapolis Center
Wed 08:09:52 PM 41.9072 -93.6553 327° Northwest 103 119 2,800 -400 Level Minneapolis Center
Wed 08:10:23 PM 41.9303 -93.6381 29° Northeast 103 119 2,400 -677 Descending Minneapolis Center
Wed 08:10:54 PM 41.9367 -93.6447 322° Northwest 107 123 2,100 -689 Descending Minneapolis Center
Wed 08:11:24 PM 41.9572 -93.6292 29° Northeast 103 119 1,700 -387 Descending Minneapolis Center
Wed 08:11:56 PM 41.9633 -93.6347 326° Northwest 101 116 1,700 304 Level Minneapolis Center
Wed 08:14:02 PM 42.0278 -93.6078 17° North 85 98 2,500 462 Climbing Minneapolis Center
Wed 08:14:32 PM 42.0383 -93.6131 340° North 89 102 2,900 742 Climbing Minneapolis Center
Wed 08:15:39 PM 42.0219 -93.6472 237° Southwest 100 115 3,700 567 Climbing Minneapolis Center
Wed 08:16:39 PM 41.9994 -93.6672 213° Southwest 101 116 4,100 99 Climbing Minneapolis Center
Wed 08:17:40 PM 41.9744 -93.6789 199° South 91 105 3,900 -197 Descending Minneapolis Center
Wed 08:18:41 PM 41.9494 -93.6822 186° South 88 101 3,700 -198 Descending Minneapolis Center
Wed 08:19:41 PM 41.9267 -93.6939 201° Southwest 88 101 3,500 -198 Descending Minneapolis Center
Wed 08:20:42 PM 41.9061 -93.7083 208° Southwest 85 98 3,300 98 Descending Minneapolis Center
Wed 08:21:43 PM 41.8856 -93.7256 212° Southwest 87 100 3,700 365 Climbing Minneapolis Center
Wed 08:22:37 PM 41.8628 -93.7400 205° Southwest 96 110 4,000 157 Climbing Minneapolis Center
Wed 08:23:38 PM 41.8358 -93.7631 213° Southwest 111 128 4,000 52 Level Minneapolis Center
Wed 08:24:33 PM 41.8108 -93.7664 186° South 119 137 4,100 52 Climbing Minneapolis Center
Wed 08:25:33 PM 41.8064 -93.7275 99° East 125 144 4,100 -99 Level Minneapolis Center
Wed 08:26:34 PM 41.8267 -93.6964 49° Northeast 107 123 3,900 -207 Descending Minneapolis Center
Wed 08:27:29 PM 41.8494 -93.6761 34° Northeast 106 122 3,700 -218 Descending Minneapolis Center

Login

Don't have an account? Register now (free) for customized features, flight alerts, and more!